Time;durP1;ratioP1;P1;durP2;ratioP2;P2;SDS_P1;SDS_P2;PMS_P1;PMS_P2;Temp;Humidity;BMP_temperature;BMP_pressure;BME280_temperature;BME280_humidity;BME280_pressure;Samples;Min_cycle;Max_cycle;Signal;HPM_P1;HPM_P2
2023/07/22 00:00:33;;;;;;;10.60;4.30;;;;;;;26.37;43.99;100404.16;107982;1288;21992;-72
2023/07/22 00:02:58;;;;;;;6.20;4.40;;;;;;;26.36;44.16;100406.58;108097;1287;21986;-71
2023/07/22 00:05:25;;;;;;;6.70;4.70;;;;;;;26.34;44.30;100403.65;108094;1287;21989;-60
2023/07/22 00:07:50;;;;;;;8.30;5.60;;;;;;;26.33;44.72;100405.71;108064;1288;22008;-60
2023/07/22 00:10:16;;;;;;;11.40;5.90;;;;;;;26.33;45.10;100408.98;108106;1281;22000;-62
2023/07/22 00:12:42;;;;;;;11.30;5.90;;;;;;;26.32;45.17;100408.38;108042;1284;21989;-72
2023/07/22 00:15:08;;;;;;;8.10;5.50;;;;;;;26.32;45.19;100411.79;108056;1287;21996;-60
2023/07/22 00:17:33;;;;;;;7.70;6.20;;;;;;;26.31;45.22;100410.77;108030;1283;21995;-60
2023/07/22 00:20:00;;;;;;;10.30;6.40;;;;;;;26.30;45.43;100407.10;108086;1288;21991;-72
2023/07/22 00:22:26;;;;;;;9.30;6.80;;;;;;;26.27;45.39;100407.14;108064;1283;21999;-61
2023/07/22 00:24:52;;;;;;;7.20;6.10;;;;;;;26.24;45.41;100408.23;108085;1284;21992;-71
2023/07/22 00:27:18;;;;;;;11.00;6.30;;;;;;;26.25;45.14;100408.70;108135;1287;21992;-60
2023/07/22 00:29:44;;;;;;;8.20;6.20;;;;;;;26.25;45.26;100411.74;108089;1280;21998;-71
2023/07/22 00:32:09;;;;;;;8.70;6.40;;;;;;;26.22;45.03;100410.61;107996;1288;21992;-60
2023/07/22 00:34:36;;;;;;;9.50;6.10;;;;;;;26.18;45.20;100416.95;108048;1284;21993;-62
2023/07/22 00:37:02;;;;;;;10.00;6.20;;;;;;;26.14;45.21;100423.01;108104;1287;21990;-69
2023/07/22 00:39:28;;;;;;;10.50;5.60;;;;;;;26.07;45.21;100425.32;108080;1287;21989;-71
2023/07/22 00:41:54;;;;;;;9.20;6.10;;;;;;;25.99;44.99;100421.83;108045;1287;22030;-59
2023/07/22 00:44:19;;;;;;;10.40;6.20;;;;;;;25.94;45.06;100420.77;108110;1286;22049;-59
2023/07/22 00:46:45;;;;;;;9.40;6.20;;;;;;;25.93;45.08;100426.80;108074;1285;21992;-71
2023/07/22 00:49:11;;;;;;;11.50;5.70;;;;;;;25.89;45.02;100430.30;108066;1287;22001;-61
2023/07/22 00:51:37;;;;;;;9.70;5.40;;;;;;;25.78;44.72;100428.95;108082;1287;22009;-60
2023/07/22 00:54:04;;;;;;;6.80;5.20;;;;;;;25.70;44.65;100432.23;108061;1284;21999;-73
2023/07/22 00:56:32;;;;;;;6.90;5.20;;;;;;;25.66;44.69;100442.23;108149;1287;23643;-59
2023/07/22 00:58:58;;;;;;;8.70;5.70;;;;;;;25.63;44.78;100447.11;108102;1288;21987;-72
2023/07/22 01:01:23;;;;;;;8.10;5.70;;;;;;;25.59;44.99;100449.47;107881;1280;21992;-59
2023/07/22 01:03:49;;;;;;;7.80;5.50;;;;;;;25.50;44.88;100449.17;108118;1284;21990;-59
2023/07/22 01:06:14;;;;;;;12.00;5.70;;;;;;;25.43;45.14;100442.28;107992;1287;21993;-59
2023/07/22 01:08:40;;;;;;;8.20;5.90;;;;;;;25.41;45.68;100436.50;107996;1287;21992;-71
2023/07/22 01:11:06;;;;;;;7.80;6.10;;;;;;;25.42;46.28;100433.93;108127;1288;22049;-72
2023/07/22 01:13:32;;;;;;;8.60;5.50;;;;;;;25.42;46.59;100438.59;108109;1288;21992;-71
2023/07/22 01:15:58;;;;;;;9.60;6.40;;;;;;;25.38;46.34;100436.17;107948;1287;21987;-60
2023/07/22 01:18:24;;;;;;;7.70;5.60;;;;;;;25.31;46.22;100427.95;107989;1281;21992;-71
2023/07/22 01:20:50;;;;;;;8.60;5.10;;;;;;;25.29;46.89;100421.04;108102;1288;22030;-64
2023/07/22 01:23:16;;;;;;;8.40;5.60;;;;;;;25.29;47.07;100418.74;108107;1287;21981;-59
2023/07/22 01:25:43;;;;;;;7.10;4.90;;;;;;;25.28;47.11;100419.53;108069;1287;21958;-72
2023/07/22 01:28:11;;;;;;;9.70;5.20;;;;;;;25.27;47.24;100419.92;108062;1288;21991;-60
2023/07/22 01:30:37;;;;;;;10.20;5.40;;;;;;;25.28;47.53;100413.29;108100;1287;21989;-70
2023/07/22 01:33:03;;;;;;;10.90;5.30;;;;;;;25.29;47.97;100408.13;108104;1284;21964;-71
2023/07/22 01:35:28;;;;;;;7.20;5.30;;;;;;;25.32;48.53;100406.46;108093;1288;22028;-59
2023/07/22 01:37:55;;;;;;;8.00;5.20;;;;;;;25.35;48.75;100400.85;108059;1284;22046;-60
2023/07/22 01:40:23;;;;;;;8.60;5.60;;;;;;;25.37;48.80;100396.06;108058;1278;21992;-71
2023/07/22 01:42:50;;;;;;;7.80;5.40;;;;;;;25.39;49.03;100395.91;108101;1286;22011;-60
2023/07/22 01:45:16;;;;;;;8.90;5.80;;;;;;;25.42;49.30;100392.11;108048;1284;21994;-63
2023/07/22 01:47:42;;;;;;;10.20;6.40;;;;;;;25.45;49.42;100387.77;108075;1277;21997;-70
2023/07/22 01:50:09;;;;;;;9.40;6.10;;;;;;;25.49;49.42;100386.38;108081;1287;22452;-60
2023/07/22 01:52:35;;;;;;;9.10;5.90;;;;;;;25.54;49.42;100382.80;108216;1280;23059;-71
2023/07/22 01:55:01;;;;;;;8.60;6.10;;;;;;;25.60;49.51;100389.04;108047;1288;22044;-60
2023/07/22 01:57:27;;;;;;;7.80;6.20;;;;;;;25.64;49.44;100388.14;108044;1288;21993;-71
2023/07/22 01:59:53;;;;;;;10.40;6.40;;;;;;;25.69;49.69;100386.34;108088;1287;21992;-71
2023/07/22 02:02:19;;;;;;;8.80;5.70;;;;;;;25.73;49.77;100388.40;108007;1283;21989;-61
2023/07/22 02:04:45;;;;;;;9.80;6.80;;;;;;;25.75;49.97;100388.02;108096;1288;21998;-70
2023/07/22 02:07:11;;;;;;;12.30;5.80;;;;;;;25.79;49.90;100383.27;108049;1278;22041;-70
2023/07/22 02:09:37;;;;;;;9.00;5.70;;;;;;;25.83;50.23;100380.59;108072;1277;22021;-70
2023/07/22 02:12:03;;;;;;;19.60;6.60;;;;;;;25.86;50.21;100377.31;108079;1280;22001;-61
2023/07/22 02:14:29;;;;;;;12.80;5.90;;;;;;;25.89;50.14;100375.70;108185;1283;21998;-59
2023/07/22 02:16:55;;;;;;;15.70;6.40;;;;;;;25.91;50.36;100373.71;108064;1284;21989;-70
2023/07/22 02:19:20;;;;;;;11.10;5.80;;;;;;;25.92;50.26;100375.44;108073;1287;22270;-71
2023/07/22 02:21:46;;;;;;;12.00;5.40;;;;;;;25.93;50.46;100378.80;108075;1288;22045;-71
2023/07/22 02:24:13;;;;;;;12.50;5.00;;;;;;;25.95;50.37;100383.10;108056;1277;21987;-58
2023/07/22 02:26:39;;;;;;;13.40;6.20;;;;;;;26.02;50.14;100386.74;108132;1287;22267;-71
2023/07/22 02:29:04;;;;;;;10.20;5.70;;;;;;;26.13;50.34;100388.98;108067;1286;21998;-59
2023/07/22 02:31:30;;;;;;;8.70;5.80;;;;;;;26.16;50.52;100390.70;108062;1288;21992;-67
2023/07/22 02:33:56;;;;;;;9.50;5.70;;;;;;;26.15;50.68;100395.98;108104;1284;22000;-65
2023/07/22 02:36:21;;;;;;;10.40;5.50;;;;;;;26.14;50.76;100392.84;108064;1284;24313;-60
2023/07/22 02:38:47;;;;;;;9.70;5.70;;;;;;;26.13;50.61;100386.02;108086;1284;22000;-59
2023/07/22 02:41:13;;;;;;;9.60;5.60;;;;;;;26.15;50.93;100381.40;108083;1288;21995;-72
2023/07/22 02:43:40;;;;;;;11.30;5.10;;;;;;;26.17;50.99;100382.15;108062;1286;21993;-59
2023/07/22 02:46:07;;;;;;;7.00;4.90;;;;;;;26.19;50.75;100378.80;108108;1277;21987;-59
2023/07/22 02:48:34;;;;;;;8.80;5.40;;;;;;;26.22;50.77;100378.02;108105;1277;21997;-72
2023/07/22 02:51:18;;;;;;;10.10;5.70;;;;;;;26.25;50.65;100373.66;108015;1283;22016;-72
2023/07/22 02:53:44;;;;;;;7.40;5.60;;;;;;;26.27;50.52;100369.66;108136;1288;21959;-72
2023/07/22 02:56:11;;;;;;;8.90;5.60;;;;;;;26.31;50.63;100360.73;108055;1284;21989;-59
2023/07/22 02:58:37;;;;;;;8.20;5.60;;;;;;;26.34;51.03;100356.08;107976;1283;21992;-71
2023/07/22 03:01:06;;;;;;;12.10;5.50;;;;;;;26.33;50.95;100352.38;108079;1288;21987;-59
2023/07/22 03:03:35;;;;;;;7.30;4.70;;;;;;;26.32;50.91;100351.48;108123;1288;21995;-59
2023/07/22 03:06:01;;;;;;;10.20;5.30;;;;;;;26.35;51.06;100355.61;108087;1283;22452;-59
2023/07/22 03:08:28;;;;;;;7.20;4.30;;;;;;;26.38;51.19;100350.68;108112;1283;21984;-60
2023/07/22 03:10:53;;;;;;;7.50;5.30;;;;;;;26.39;51.60;100348.40;108042;1277;21990;-72
2023/07/22 03:13:19;;;;;;;10.90;4.80;;;;;;;26.39;51.72;100345.21;107964;1283;21992;-59
2023/07/22 03:15:45;;;;;;;8.90;5.00;;;;;;;26.39;51.70;100339.81;108087;1283;21994;-59
2023/07/22 03:18:11;;;;;;;7.50;4.60;;;;;;;26.42;51.86;100347.88;108102;1280;21996;-60
2023/07/22 03:20:37;;;;;;;8.50;4.50;;;;;;;26.45;52.21;100358.40;108076;1288;21994;-59
2023/07/22 03:23:04;;;;;;;8.50;4.60;;;;;;;26.48;52.42;100357.07;108128;1288;21992;-60
2023/07/22 03:25:31;;;;;;;9.60;4.40;;;;;;;26.51;52.50;100353.42;108129;1283;22038;-70
2023/07/22 03:27:57;;;;;;;12.10;5.10;;;;;;;26.54;52.51;100350.05;108103;1277;21992;-60
2023/07/22 03:30:23;;;;;;;9.10;5.00;;;;;;;26.60;52.62;100348.00;108029;1288;21992;-70
2023/07/22 03:32:50;;;;;;;11.80;4.60;;;;;;;26.66;52.97;100347.34;108062;1284;21996;-61
2023/07/22 03:35:17;;;;;;;24.90;5.60;;;;;;;26.70;53.08;100352.59;108084;1284;22011;-59
2023/07/22 03:37:43;;;;;;;10.60;4.20;;;;;;;26.78;52.92;100354.14;108089;1283;22031;-72
2023/07/22 03:40:26;;;;;;;16.40;5.00;;;;;;;26.91;54.59;100353.55;108102;1280;22030;-59
2023/07/22 03:42:53;;;;;;;6.60;3.40;;;;;;;27.00;55.71;100358.70;108095;1287;21994;-59
2023/07/22 03:45:19;;;;;;;7.60;3.60;;;;;;;27.08;57.21;100360.01;108089;1288;22000;-72
2023/07/22 03:47:46;;;;;;;5.50;3.30;;;;;;;27.15;59.65;100356.19;108045;1278;21988;-60
2023/07/22 03:50:11;;;;;;;8.20;3.50;;;;;;;27.22;61.45;100353.48;108121;1274;21987;-59
2023/07/22 03:52:38;;;;;;;7.40;3.80;;;;;;;27.26;62.14;100347.15;108150;1283;22008;-59
2023/07/22 03:55:05;;;;;;;8.70;3.10;;;;;;;27.33;62.38;100351.71;108111;1283;21995;-74
2023/07/22 03:57:31;;;;;;;7.10;3.20;;;;;;;27.41;60.38;100353.73;108132;1287;22006;-75
2023/07/22 03:59:56;;;;;;;5.50;3.10;;;;;;;27.50;60.21;100351.19;108047;1278;21990;-59
2023/07/22 04:02:22;;;;;;;7.70;3.20;;;;;;;27.57;61.87;100356.14;108089;1281;21994;-74
2023/07/22 04:04:48;;;;;;;7.20;3.10;;;;;;;27.65;61.31;100359.88;108124;1283;22027;-73
2023/07/22 04:07:14;;;;;;;5.50;3.30;;;;;;;27.70;64.16;100360.31;108054;1280;21993;-59
2023/07/22 04:09:40;;;;;;;7.80;3.30;;;;;;;27.74;61.91;100358.54;108112;1283;21986;-75
2023/07/22 04:12:07;;;;;;;5.50;2.80;;;;;;;27.83;61.28;100358.53;108102;1284;22216;-77
2023/07/22 04:14:32;;;;;;;4.70;2.90;;;;;;;27.90;61.73;100353.95;108100;1284;21990;-59
2023/07/22 04:16:58;;;;;;;4.80;2.80;;;;;;;27.97;61.98;100351.05;108070;1277;21992;-73
2023/07/22 04:19:24;;;;;;;7.20;2.60;;;;;;;28.04;62.98;100354.77;108089;1287;21996;-75
2023/07/22 04:21:50;;;;;;;7.20;2.90;;;;;;;28.12;61.79;100346.30;108077;1284;21999;-74
2023/07/22 04:24:15;;;;;;;9.70;2.70;;;;;;;28.20;62.74;100343.62;108112;1283;22046;-75
2023/07/22 04:26:42;;;;;;;6.30;2.60;;;;;;;28.28;61.51;100340.60;108089;1287;21987;-59
2023/07/22 04:29:09;;;;;;;9.40;3.50;;;;;;;28.36;61.84;100339.17;108137;1283;21991;-58
2023/07/22 04:31:35;;;;;;;4.40;2.40;;;;;;;28.44;62.15;100337.98;108073;1288;22011;-59
2023/07/22 04:34:00;;;;;;;4.40;2.70;;;;;;;28.51;62.16;100331.94;108082;1288;22004;-58
2023/07/22 04:36:26;;;;;;;6.10;2.90;;;;;;;28.56;61.80;100331.11;108066;1288;21999;-73
2023/07/22 04:38:52;;;;;;;4.80;2.50;;;;;;;28.61;61.69;100333.18;108104;1288;21990;-61
2023/07/22 04:41:18;;;;;;;6.30;3.00;;;;;;;28.67;61.85;100332.17;108008;1288;21986;-72
2023/07/22 04:43:43;;;;;;;4.40;2.50;;;;;;;28.72;61.74;100325.35;107864;1283;23653;-59
2023/07/22 04:46:09;;;;;;;5.10;3.10;;;;;;;28.79;62.61;100323.48;108094;1288;22000;-75
2023/07/22 04:48:36;;;;;;;4.30;2.70;;;;;;;28.88;63.15;100322.65;108094;1287;23246;-75
2023/07/22 04:51:02;;;;;;;5.10;2.60;;;;;;;29.01;63.02;100323.90;108132;1281;21993;-59
2023/07/22 04:53:28;;;;;;;4.70;3.00;;;;;;;29.13;62.79;100323.71;108050;1287;22009;-60
2023/07/22 04:55:55;;;;;;;6.70;2.80;;;;;;;29.25;62.28;100328.14;108012;1284;21992;-73
2023/07/22 04:58:21;;;;;;;5.10;2.60;;;;;;;29.37;61.96;100330.35;108057;1283;21989;-60
2023/07/22 05:00:48;;;;;;;4.10;3.00;;;;;;;29.46;62.08;100332.29;108133;1286;23749;-74
2023/07/22 05:03:14;;;;;;;3.90;2.80;;;;;;;29.51;61.99;100326.04;108010;1280;21994;-60
2023/07/22 05:05:40;;;;;;;8.00;2.40;;;;;;;29.58;61.39;100322.63;108194;1279;21984;-72
2023/07/22 05:08:08;;;;;;;4.70;2.30;;;;;;;29.68;60.60;100319.33;107805;1288;22024;-72
2023/07/22 05:10:33;;;;;;;4.50;2.50;;;;;;;29.80;60.56;100310.59;108148;1286;23657;-59
2023/07/22 05:12:59;;;;;;;4.90;2.90;;;;;;;29.91;60.19;100303.66;108081;1288;21997;-61
2023/07/22 05:15:25;;;;;;;3.30;2.60;;;;;;;29.98;60.02;100301.39;108105;1288;21986;-69
2023/07/22 05:17:51;;;;;;;5.00;2.60;;;;;;;30.03;59.66;100300.02;108066;1287;21970;-71
2023/07/22 05:20:17;;;;;;;4.30;2.70;;;;;;;30.09;59.37;100298.70;108074;1288;21991;-59
2023/07/22 05:22:43;;;;;;;6.30;2.60;;;;;;;30.14;59.49;100292.08;108101;1278;21993;-72
2023/07/22 05:25:09;;;;;;;5.10;2.40;;;;;;;30.21;59.18;100286.73;108105;1287;21987;-70
2023/07/22 05:27:35;;;;;;;9.40;2.50;;;;;;;30.29;58.50;100284.30;108107;1284;21985;-71
2023/07/22 05:30:01;;;;;;;6.60;2.70;;;;;;;30.36;57.65;100281.79;108097;1286;23522;-59
2023/07/22 05:32:30;;;;;;;5.10;2.10;;;;;;;30.43;57.10;100274.80;108120;1287;21989;-71
2023/07/22 05:34:56;;;;;;;10.30;2.60;;;;;;;30.48;56.21;100268.38;107827;1288;23727;-60
2023/07/22 05:37:23;;;;;;;4.90;2.40;;;;;;;30.54;54.56;100259.40;108053;1283;21989;-59
2023/07/22 05:39:49;;;;;;;5.90;2.90;;;;;;;30.62;53.89;100258.42;108080;1277;21992;-74
2023/07/22 05:42:14;;;;;;;5.60;2.70;;;;;;;30.68;53.39;100252.65;107953;1281;22055;-72
2023/07/22 05:44:40;;;;;;;6.00;2.50;;;;;;;30.71;53.13;100255.09;108089;1281;23624;-59
2023/07/22 05:47:06;;;;;;;5.10;2.10;;;;;;;30.70;52.71;100256.60;108050;1288;21992;-72
2023/07/22 05:49:31;;;;;;;10.40;2.40;;;;;;;30.76;52.14;100256.16;108055;1288;23724;-73
2023/07/22 05:51:57;;;;;;;11.50;2.40;;;;;;;30.83;51.27;100251.14;108056;1288;21994;-72
2023/07/22 05:54:23;;;;;;;7.00;2.30;;;;;;;30.90;50.84;100253.01;107964;1287;21997;-61
2023/07/22 05:56:48;;;;;;;4.00;2.40;;;;;;;30.97;50.87;100260.82;108089;1284;21981;-60
2023/07/22 05:59:14;;;;;;;7.80;2.40;;;;;;;31.04;50.77;100265.40;108048;1284;22010;-61
2023/07/22 06:01:40;;;;;;;5.30;2.90;;;;;;;31.05;50.47;100279.98;108068;1284;21992;-61
2023/07/22 06:04:06;;;;;;;8.20;2.40;;;;;;;31.02;49.86;100296.56;108026;1283;21979;-62
2023/07/22 06:06:31;;;;;;;5.10;2.50;;;;;;;31.01;49.78;100303.99;108078;1288;22481;-73
2023/07/22 06:08:57;;;;;;;6.80;2.20;;;;;;;31.01;49.10;100295.51;107974;1288;23725;-74
2023/07/22 06:11:23;;;;;;;11.20;3.00;;;;;;;31.01;48.38;100296.45;108585;1284;23615;-74
2023/07/22 06:13:49;;;;;;;5.80;2.40;;;;;;;31.02;48.12;100299.12;108108;1283;21990;-60
2023/07/22 06:16:15;;;;;;;5.10;2.40;;;;;;;31.05;47.99;100295.68;108082;1284;21996;-61
2023/07/22 06:18:40;;;;;;;11.10;2.40;;;;;;;31.12;47.64;100291.20;108065;1283;21989;-70
2023/07/22 06:21:06;;;;;;;10.70;2.40;;;;;;;31.23;47.69;100288.80;108131;1283;23051;-61
2023/07/22 06:23:32;;;;;;;7.10;2.40;;;;;;;31.43;47.77;100292.98;108239;1283;21990;-70
2023/07/22 06:25:57;;;;;;;12.10;2.60;;;;;;;31.65;47.32;100284.04;108142;1288;21993;-68
2023/07/22 06:28:23;;;;;;;6.20;2.00;;;;;;;31.77;46.58;100265.21;108148;1281;22726;-72
2023/07/22 06:30:48;;;;;;;7.20;2.40;;;;;;;31.88;46.05;100255.95;108018;1287;23650;-71
2023/07/22 06:33:14;;;;;;;7.60;2.60;;;;;;;31.90;45.90;100256.81;108123;1283;21989;-70
2023/07/22 06:35:41;;;;;;;8.70;3.00;;;;;;;31.90;46.17;100268.11;108020;1283;23647;-60
2023/07/22 06:38:06;;;;;;;4.90;2.30;;;;;;;31.81;45.81;100261.08;108013;1287;22165;-72
2023/07/22 06:40:33;;;;;;;6.70;2.10;;;;;;;31.74;45.70;100234.05;108190;1278;21993;-60
2023/07/22 06:42:59;;;;;;;8.10;2.30;;;;;;;31.69;45.58;100221.11;108203;1277;21996;-71
2023/07/22 06:45:25;;;;;;;4.40;2.10;;;;;;;31.67;45.72;100219.15;108177;1283;22000;-60
2023/07/22 06:47:50;;;;;;;10.00;2.30;;;;;;;31.66;45.61;100213.30;108096;1284;22532;-71
2023/07/22 06:50:16;;;;;;;6.10;2.30;;;;;;;31.69;45.68;100212.40;108255;1287;21993;-69
2023/07/22 06:52:42;;;;;;;9.10;2.60;;;;;;;31.83;46.11;100220.15;108108;1283;23631;-60
2023/07/22 06:55:08;;;;;;;7.60;3.00;;;;;;;32.09;45.95;100226.36;108128;1287;21989;-71
2023/07/22 06:57:36;;;;;;;3.10;2.40;;;;;;;32.34;45.48;100216.45;108091;1286;22027;-75
2023/07/22 07:00:05;;;;;;;4.60;2.30;;;;;;;32.49;45.14;100206.55;107988;1288;175429;-71
2023/07/22 07:02:38;;;;;;;6.80;2.20;;;;;;;32.60;45.15;100200.58;108049;1277;21992;-60
2023/07/22 07:05:05;;;;;;;31.40;3.90;;;;;;;32.65;44.44;100204.40;108074;1287;21996;-72
2023/07/22 07:07:32;;;;;;;3.20;2.20;;;;;;;32.77;43.83;100200.60;108099;1283;22447;-62
2023/07/22 07:10:01;;;;;;;66.80;5.90;;;;;;;32.84;42.85;100196.61;108044;1286;21990;-60
2023/07/22 07:12:27;;;;;;;19.40;3.40;;;;;;;32.88;41.20;100199.65;108065;1283;21989;-71
2023/07/22 07:14:53;;;;;;;8.00;1.90;;;;;;;32.87;40.20;100207.53;108118;1283;22512;-60
2023/07/22 07:17:20;;;;;;;12.10;2.60;;;;;;;32.85;39.42;100215.55;108131;1281;21999;-61
2023/07/22 07:19:46;;;;;;;40.80;5.00;;;;;;;32.88;39.06;100213.00;108326;1286;21997;-61
2023/07/22 07:22:12;;;;;;;8.30;2.30;;;;;;;32.93;39.14;100216.85;108223;1287;22456;-60
2023/07/22 07:24:37;;;;;;;40.20;4.50;;;;;;;32.95;38.54;100222.09;108177;1280;21999;-71
2023/07/22 07:27:04;;;;;;;3.80;2.30;;;;;;;32.96;38.37;100236.31;108093;1288;22049;-72
2023/07/22 07:29:29;;;;;;;9.60;2.10;;;;;;;32.91;38.26;100241.75;108174;1283;23773;-71
2023/07/22 07:31:55;;;;;;;8.90;2.60;;;;;;;32.82;37.80;100242.98;107961;1288;22108;-59
2023/07/22 07:34:21;;;;;;;6.60;2.20;;;;;;;32.74;37.99;100251.57;108169;1288;21990;-60
2023/07/22 07:36:48;;;;;;;7.80;2.40;;;;;;;32.68;37.91;100255.89;108144;1288;21989;-59
2023/07/22 07:39:14;;;;;;;16.00;3.50;;;;;;;32.57;37.62;100256.21;108145;1283;21987;-70
2023/07/22 07:41:40;;;;;;;4.90;2.40;;;;;;;32.52;38.23;100250.67;108150;1284;23709;-60
2023/07/22 07:44:06;;;;;;;7.00;2.50;;;;;;;32.41;38.70;100250.78;108087;1284;23725;-60
2023/07/22 07:46:31;;;;;;;5.40;2.70;;;;;;;32.31;38.90;100267.58;108077;1283;22000;-69
2023/07/22 07:48:59;;;;;;;8.90;2.50;;;;;;;32.17;38.54;100269.61;107909;1287;21986;-59
2023/07/22 07:51:28;;;;;;;9.90;2.80;;;;;;;32.03;38.88;100277.48;108088;1282;21997;-69
2023/07/22 07:53:54;;;;;;;5.90;2.50;;;;;;;31.97;39.28;100273.50;108112;1286;21992;-70
2023/07/22 07:56:22;;;;;;;7.00;2.80;;;;;;;31.91;39.55;100272.47;108133;1287;21978;-69
2023/07/22 07:58:49;;;;;;;7.50;2.80;;;;;;;31.83;39.95;100274.23;108045;1288;21987;-59
2023/07/22 08:01:15;;;;;;;11.30;2.90;;;;;;;31.73;40.73;100269.80;108088;1284;22004;-59
2023/07/22 08:03:42;;;;;;;6.90;2.90;;;;;;;31.63;41.84;100275.55;108136;1283;22151;-64
2023/07/22 08:06:08;;;;;;;7.50;2.50;;;;;;;31.45;42.87;100265.98;107965;1284;23602;-60
2023/07/22 08:08:35;;;;;;;5.10;2.60;;;;;;;31.26;43.43;100253.73;108074;1287;22023;-69
2023/07/22 08:11:02;;;;;;;4.30;2.80;;;;;;;31.01;44.95;100244.27;108219;1287;21986;-70
2023/07/22 08:13:29;;;;;;;6.80;2.70;;;;;;;30.70;45.95;100233.79;108219;1283;21990;-59
2023/07/22 08:15:55;;;;;;;5.70;2.50;;;;;;;30.40;47.07;100232.36;108162;1283;21991;-71
2023/07/22 08:18:21;;;;;;;4.10;2.70;;;;;;;30.16;47.74;100235.57;108109;1287;23663;-67
2023/07/22 08:20:47;;;;;;;4.00;2.60;;;;;;;30.00;48.74;100236.98;108124;1284;22000;-68
2023/07/22 08:23:14;;;;;;;5.20;2.90;;;;;;;29.86;49.98;100241.02;108059;1288;21989;-68
2023/07/22 08:25:39;;;;;;;5.00;3.10;;;;;;;29.73;50.93;100236.08;108171;1281;21992;-68
2023/07/22 08:28:05;;;;;;;6.70;2.80;;;;;;;29.62;51.64;100234.08;108119;1280;21989;-61
2023/07/22 08:30:31;;;;;;;6.80;3.20;;;;;;;29.55;50.54;100234.19;108173;1283;21993;-60
2023/07/22 08:32:57;;;;;;;6.70;2.60;;;;;;;29.52;51.66;100229.52;108150;1284;21993;-61
2023/07/22 08:35:22;;;;;;;4.80;3.20;;;;;;;29.50;53.03;100228.18;108150;1283;24018;-69
2023/07/22 08:37:48;;;;;;;5.50;3.20;;;;;;;29.49;52.68;100223.02;108135;1284;21997;-61
2023/07/22 08:40:14;;;;;;;5.30;2.70;;;;;;;29.50;53.60;100212.77;107950;1287;21988;-70
2023/07/22 08:42:40;;;;;;;4.90;2.70;;;;;;;29.51;53.99;100201.98;108134;1288;22107;-60
2023/07/22 08:45:06;;;;;;;7.60;2.70;;;;;;;29.54;54.44;100200.11;108133;1282;22048;-72
2023/07/22 08:47:32;;;;;;;5.50;2.80;;;;;;;29.59;54.05;100196.95;108405;1283;21988;-73
2023/07/22 08:50:00;;;;;;;3.80;2.90;;;;;;;29.68;56.91;100208.52;107810;1288;23724;-60
2023/07/22 08:52:26;;;;;;;4.70;2.70;;;;;;;29.80;55.91;100218.58;109966;1284;21917;-61
2023/07/22 08:54:52;;;;;;;7.10;3.50;;;;;;;29.92;57.39;100215.83;108440;1288;23711;-73
2023/07/22 08:57:18;;;;;;;5.10;2.60;;;;;;;30.04;56.97;100213.77;107805;1288;21989;-73
2023/07/22 08:59:43;;;;;;;5.60;3.20;;;;;;;30.13;56.73;100220.16;107884;1280;21999;-61
2023/07/22 09:02:10;;;;;;;6.20;3.60;;;;;;;30.20;57.98;100220.63;108079;1284;21985;-71
2023/07/22 09:04:36;;;;;;;6.30;3.10;;;;;;;30.25;58.82;100218.60;108435;1287;24406;-64
2023/07/22 09:07:02;;;;;;;4.70;2.90;;;;;;;30.32;59.54;100213.63;107962;1287;22136;-74
2023/07/22 09:09:29;;;;;;;5.30;3.10;;;;;;;30.45;58.10;100209.61;108043;1284;21987;-72
2023/07/22 09:11:55;;;;;;;5.70;2.60;;;;;;;30.62;58.95;100204.72;107880;1288;21992;-71
2023/07/22 09:14:23;;;;;;;4.90;3.00;;;;;;;30.85;58.49;100195.39;107859;1288;23612;-60
2023/07/22 09:16:49;;;;;;;6.00;2.70;;;;;;;31.14;56.49;100190.65;107817;1288;21988;-65
2023/07/22 09:19:14;;;;;;;3.40;2.50;;;;;;;31.52;54.76;100184.95;108087;1281;21986;-60
2023/07/22 09:21:40;;;;;;;6.60;2.40;;;;;;;31.94;52.37;100184.73;108104;1284;21995;-60
2023/07/22 09:24:23;;;;;;;3.40;2.10;;;;;;;32.35;49.85;100180.55;108113;1287;22027;-61
2023/07/22 09:26:49;;;;;;;6.20;2.80;;;;;;;32.74;47.49;100182.38;108178;1283;23127;-61
2023/07/22 09:29:15;;;;;;;4.80;2.30;;;;;;;33.12;45.60;100176.27;108109;1287;21994;-60
2023/07/22 09:31:51;;;;;;;3.30;2.10;;;;;;;33.41;43.91;100179.30;108102;1280;22037;-61
2023/07/22 09:34:17;;;;;;;4.90;2.50;;;;;;;33.66;42.56;100180.45;108079;1287;21988;-61
2023/07/22 09:36:53;;;;;;;4.80;2.20;;;;;;;33.73;39.74;100176.34;108076;1288;21998;-67
2023/07/22 09:39:19;;;;;;;5.40;2.50;;;;;;;33.71;39.23;100169.91;108107;1288;21981;-73
2023/07/22 09:41:45;;;;;;;8.00;2.30;;;;;;;33.67;39.50;100167.73;108117;1288;21992;-75
2023/07/22 09:44:12;;;;;;;4.20;2.20;;;;;;;33.69;38.19;100174.10;108102;1283;21986;-71
2023/07/22 09:46:38;;;;;;;5.70;2.80;;;;;;;33.78;37.03;100165.48;107907;1279;21994;-61
2023/07/22 09:49:05;;;;;;;3.10;1.90;;;;;;;33.93;37.50;100157.59;108122;1288;21987;-72
2023/07/22 09:51:36;;;;;;;3.20;1.90;;;;;;;34.07;36.67;100148.90;108148;1280;21993;-61
2023/07/22 09:54:03;;;;;;;4.20;1.80;;;;;;;34.28;36.27;100148.48;108131;1287;23740;-60
2023/07/22 09:56:28;;;;;;;3.00;1.70;;;;;;;34.60;35.57;100139.40;108191;1284;21995;-62
2023/07/22 09:58:54;;;;;;;4.20;1.70;;;;;;;34.97;33.18;100139.66;108145;1284;21992;-70
2023/07/22 10:01:23;;;;;;;3.30;1.50;;;;;;;35.26;30.91;100134.70;107919;1283;21985;-60
2023/07/22 10:03:51;;;;;;;6.60;1.80;;;;;;;35.52;31.10;100134.14;108102;1277;21989;-72
2023/07/22 10:06:17;;;;;;;5.40;1.90;;;;;;;35.59;29.99;100129.61;108138;1288;21991;-61
2023/07/22 10:08:44;;;;;;;3.00;1.90;;;;;;;35.71;31.59;100126.17;108105;1277;22099;-61
2023/07/22 10:11:10;;;;;;;5.20;1.50;;;;;;;35.84;31.94;100122.20;108223;1288;21989;-68
2023/07/22 10:13:38;;;;;;;4.30;1.90;;;;;;;35.86;31.75;100121.77;107826;1286;23077;-70
2023/07/22 10:16:04;;;;;;;8.30;2.40;;;;;;;36.06;33.05;100113.98;107937;1283;23666;-69
2023/07/22 10:18:31;;;;;;;4.40;2.20;;;;;;;36.18;33.32;100116.75;107927;1287;22072;-60
2023/07/22 10:20:58;;;;;;;6.10;2.20;;;;;;;36.43;33.59;100115.74;108150;1283;22002;-71
2023/07/22 10:23:25;;;;;;;4.10;2.60;;;;;;;36.71;33.70;100115.39;108161;1284;22051;-69
2023/07/22 10:25:52;;;;;;;5.20;2.40;;;;;;;36.91;34.14;100118.52;108110;1288;21993;-69
2023/07/22 10:28:19;;;;;;;5.20;2.50;;;;;;;37.08;34.10;100118.95;108083;1288;21996;-68
2023/07/22 10:30:45;;;;;;;6.80;2.40;;;;;;;37.14;34.01;100124.82;107995;1283;23763;-69
2023/07/22 10:33:11;;;;;;;4.50;2.30;;;;;;;37.19;34.00;100125.64;107966;1287;22159;-68
2023/07/22 10:35:42;;;;;;;6.70;2.40;;;;;;;37.28;34.14;100129.13;107922;1284;21999;-60
2023/07/22 10:38:09;;;;;;;3.70;2.30;;;;;;;37.34;34.22;100128.49;108130;1283;21981;-67
2023/07/22 10:40:53;;;;;;;7.10;2.50;;;;;;;37.48;33.73;100128.86;108117;1284;22002;-61
2023/07/22 10:43:33;;;;;;;5.90;2.80;;;;;;;37.59;33.16;100118.27;108121;1288;22011;-61
2023/07/22 10:46:10;;;;;;;6.50;2.60;;;;;;;37.52;32.77;100118.48;108143;1284;21997;-60
2023/07/22 10:48:37;;;;;;;6.10;2.30;;;;;;;37.63;33.57;100114.83;108112;1274;22463;-61
2023/07/22 10:51:09;;;;;;;7.80;2.80;;;;;;;37.64;33.31;100100.27;108132;1277;21998;-59
2023/07/22 10:53:41;;;;;;;6.70;2.40;;;;;;;37.61;33.58;100095.01;107952;1286;23052;-66
2023/07/22 10:56:19;;;;;;;23.30;4.70;;;;;;;37.66;33.90;100103.99;108121;1287;21993;-66
2023/07/22 10:58:47;;;;;;;4.40;2.40;;;;;;;37.73;33.24;100098.31;108093;1286;21969;-68
2023/07/22 11:01:28;;;;;;;5.00;2.30;;;;;;;37.81;33.21;100089.39;108119;1287;22004;-59
2023/07/22 11:04:31;;;;;;;4.20;2.20;;;;;;;37.67;32.85;100086.89;108126;1288;21996;-67
2023/07/22 11:06:59;;;;;;;5.10;2.30;;;;;;;37.68;33.19;100079.13;108142;1287;21989;-60
2023/07/22 11:09:27;;;;;;;5.00;2.20;;;;;;;37.66;33.16;100066.78;108087;1277;22027;-68
2023/07/22 11:11:57;;;;;;;5.60;2.50;;;;;;;37.79;33.52;100059.27;108100;1278;22047;-59
2023/07/22 11:14:24;;;;;;;;;;;;;;;37.95;33.34;100066.55;108075;1286;22012;-62